Time;durP1;ratioP1;P1;durP2;ratioP2;P2;SDS_P1;SDS_P2;PMS_P1;PMS_P2;Temp;Humidity;BMP_temperature;BMP_pressure;BME280_temperature;BME280_humidity;BME280_pressure;Samples;Min_cycle;Max_cycle;Signal;HPM_P1;HPM_P2
2021/12/20 00:01:11;;;;;;;33.13;7.43;;;;;;;;;;5013129;28;20512;-60
2021/12/20 00:03:36;;;;;;;28.80;8.13;;;;;;;;;;5014240;28;20420;-61
2021/12/20 00:06:01;;;;;;;33.28;7.80;;;;;;;;;;5021099;28;20125;-60
2021/12/20 00:08:28;;;;;;;21.48;7.95;;;;;;;;;;5014252;28;20057;-60
2021/12/20 00:10:53;;;;;;;28.10;7.68;;;;;;;;;;5012963;28;20064;-60
2021/12/20 00:13:19;;;;;;;26.75;9.63;;;;;;;;;;5014012;28;20065;-59
2021/12/20 00:15:45;;;;;;;39.60;10.93;;;;;;;;;;5012666;28;20057;-59
2021/12/20 00:18:10;;;;;;;27.27;7.70;;;;;;;;;;5022906;28;20025;-59
2021/12/20 00:20:35;;;;;;;22.23;6.32;;;;;;;;;;5012267;28;20034;-58
2021/12/20 00:23:00;;;;;;;23.17;6.05;;;;;;;;;;5025857;28;20506;-59
2021/12/20 00:25:25;;;;;;;27.77;6.88;;;;;;;;;;5027168;28;20034;-59
2021/12/20 00:27:51;;;;;;;41.13;8.73;;;;;;;;;;5013913;28;20025;-59
2021/12/20 00:30:17;;;;;;;27.17;6.20;;;;;;;;;;5032030;28;21057;-59
2021/12/20 00:32:42;;;;;;;27.90;6.82;;;;;;;;;;5033608;28;20026;-60
2021/12/20 00:35:07;;;;;;;31.80;6.88;;;;;;;;;;5031606;28;20116;-59
2021/12/20 00:40:20;;;;;;;29.17;9.68;;;;;;;;;;5032363;28;20036;-59
2021/12/20 00:42:45;;;;;;;;;;;;;;;;;;5033531;28;20103;-60
2021/12/20 00:45:11;;;;;;;35.67;9.07;;;;;;;;;;5020033;28;19917;-59
2021/12/20 00:47:37;;;;;;;36.35;8.13;;;;;;;;;;5025248;28;20105;-59
2021/12/20 00:50:03;;;;;;;34.20;11.65;;;;;;;;;;5026298;28;20386;-59
2021/12/20 00:52:28;;;;;;;45.05;8.43;;;;;;;;;;5013593;28;20080;-59
2021/12/20 00:54:53;;;;;;;29.67;8.05;;;;;;;;;;5012145;28;20104;-60
2021/12/20 00:57:18;;;;;;;27.98;8.98;;;;;;;;;;5031757;28;20045;-60
2021/12/20 00:59:43;;;;;;;31.15;9.07;;;;;;;;;;5018485;28;20149;-60
2021/12/20 01:02:09;;;;;;;32.75;7.85;;;;;;;;;;5013495;28;20021;-59
2021/12/20 01:04:34;;;;;;;32.75;9.57;;;;;;;;;;5021132;28;20037;-60
2021/12/20 01:06:59;;;;;;;24.75;7.40;;;;;;;;;;5024548;28;20026;-60
2021/12/20 01:09:24;;;;;;;29.58;10.65;;;;;;;;;;5011626;28;20034;-59
2021/12/20 01:11:53;;;;;;;44.85;9.50;;;;;;;;;;5025663;28;20033;-60
2021/12/20 01:14:23;;;;;;;39.80;9.10;;;;;;;;;;5031875;28;20111;-60
2021/12/20 01:16:49;;;;;;;36.50;10.98;;;;;;;;;;5026086;28;20056;-59
2021/12/20 01:19:14;;;;;;;48.78;13.70;;;;;;;;;;5031542;28;20041;-59
2021/12/20 01:21:39;;;;;;;22.55;7.55;;;;;;;;;;5032484;28;20366;-59
2021/12/20 01:24:05;;;;;;;41.73;7.70;;;;;;;;;;5031233;28;20096;-59
2021/12/20 01:26:30;;;;;;;22.70;6.53;;;;;;;;;;5032411;28;20419;-60
2021/12/20 01:28:55;;;;;;;25.58;5.85;;;;;;;;;;5022319;28;20017;-60
2021/12/20 01:31:20;;;;;;;29.17;7.82;;;;;;;;;;5022603;28;20357;-60
2021/12/20 01:33:46;;;;;;;34.38;8.98;;;;;;;;;;5032517;28;20021;-60
2021/12/20 01:36:11;;;;;;;40.72;11.25;;;;;;;;;;5030669;28;20041;-60
2021/12/20 01:38:36;;;;;;;29.20;7.47;;;;;;;;;;5032338;28;20021;-60
2021/12/20 01:41:01;;;;;;;40.83;9.40;;;;;;;;;;5031038;28;20034;-60
2021/12/20 01:43:27;;;;;;;37.67;7.97;;;;;;;;;;5028684;28;20043;-60
2021/12/20 01:45:52;;;;;;;35.83;8.10;;;;;;;;;;5011179;28;20530;-60
2021/12/20 01:48:19;;;;;;;30.40;8.30;;;;;;;;;;5029822;28;20468;-60
2021/12/20 01:53:11;;;;;;;37.88;9.23;;;;;;;;;;5031376;28;20715;-60
2021/12/20 01:55:37;;;;;;;28.92;9.20;;;;;;;;;;5010447;28;20042;-61
2021/12/20 01:58:02;;;;;;;34.20;8.35;;;;;;;;;;5011839;28;20505;-60
2021/12/20 02:00:28;;;;;;;34.85;11.00;;;;;;;;;;5013164;28;20045;-61
2021/12/20 02:03:01;;;;;;;44.63;10.27;;;;;;;;;;5032185;28;20021;-60
2021/12/20 02:05:46;;;;;;;31.95;7.13;;;;;;;;;;5030015;28;20492;-60
2021/12/20 02:08:22;;;;;;;34.25;8.98;;;;;;;;;;5012588;28;20030;-59
2021/12/20 02:10:49;;;;;;;22.40;7.88;;;;;;;;;;5010211;28;20077;-60
2021/12/20 02:13:15;;;;;;;58.78;11.10;;;;;;;;;;5011601;28;20072;-60
2021/12/20 02:15:40;;;;;;;31.92;10.70;;;;;;;;;;5012036;28;20034;-60
2021/12/20 02:18:05;;;;;;;45.03;11.77;;;;;;;;;;5016376;28;20022;-60
2021/12/20 02:20:32;;;;;;;58.90;15.30;;;;;;;;;;5010142;28;20041;-60
2021/12/20 02:22:58;;;;;;;27.67;8.23;;;;;;;;;;5011853;28;20109;-60
2021/12/20 02:25:24;;;;;;;31.77;7.63;;;;;;;;;;5010227;28;20442;-60
2021/12/20 02:27:49;;;;;;;47.40;10.25;;;;;;;;;;5011432;28;20033;-60
2021/12/20 02:30:38;;;;;;;46.95;8.65;;;;;;;;;;5014499;28;20406;-60
2021/12/20 02:36:58;;;;;;;54.53;10.90;;;;;;;;;;5029987;28;20111;-60
2021/12/20 02:38:39;;;;;;;29.42;7.15;;;;;;;;;;5030913;28;20026;-60
2021/12/20 02:41:11;;;;;;;41.13;10.45;;;;;;;;;;5029499;28;20033;-59
2021/12/20 02:43:41;;;;;;;34.65;8.93;;;;;;;;;;5029658;28;20029;-59
2021/12/20 02:49:01;;;;;;;34.47;8.85;;;;;;;;;;5009185;28;20125;-58
2021/12/20 02:51:27;;;;;;;31.73;6.55;;;;;;;;;;5011377;28;20097;-58
2021/12/20 02:53:53;;;;;;;31.65;8.57;;;;;;;;;;5012611;28;20032;-59
2021/12/20 02:56:19;;;;;;;35.83;9.50;;;;;;;;;;5009606;28;20552;-60
2021/12/20 02:58:44;;;;;;;38.40;10.02;;;;;;;;;;5015722;28;20033;-60
2021/12/20 03:01:09;;;;;;;34.50;8.77;;;;;;;;;;5022542;28;20095;-60
2021/12/20 03:03:34;;;;;;;34.25;7.38;;;;;;;;;;5030732;28;20947;-60
2021/12/20 03:06:06;;;;;;;35.53;8.63;;;;;;;;;;5029334;28;20053;-60
2021/12/20 03:08:31;;;;;;;37.28;10.52;;;;;;;;;;5030731;28;20439;-60
2021/12/20 03:10:57;;;;;;;27.45;8.40;;;;;;;;;;5029417;28;20065;-61
2021/12/20 03:13:23;;;;;;;43.30;9.32;;;;;;;;;;5030836;28;20377;-61
2021/12/20 03:15:48;;;;;;;37.58;9.38;;;;;;;;;;5022147;28;20113;-60
2021/12/20 03:18:13;;;;;;;40.90;9.55;;;;;;;;;;5030720;28;20148;-60
2021/12/20 03:20:38;;;;;;;37.17;9.73;;;;;;;;;;5029478;28;20040;-60
2021/12/20 03:23:03;;;;;;;30.63;8.73;;;;;;;;;;5033144;28;20353;-60
2021/12/20 03:25:28;;;;;;;34.50;8.13;;;;;;;;;;5027064;28;20461;-60
2021/12/20 03:27:54;;;;;;;42.47;9.20;;;;;;;;;;5015127;28;20028;-60
2021/12/20 03:30:19;;;;;;;42.83;8.38;;;;;;;;;;5029843;28;20037;-60
2021/12/20 03:32:44;;;;;;;32.38;8.43;;;;;;;;;;5034227;28;20030;-60
2021/12/20 03:35:10;;;;;;;41.33;11.30;;;;;;;;;;5027677;28;20072;-60
2021/12/20 03:37:35;;;;;;;46.00;10.70;;;;;;;;;;5014700;28;20429;-60
2021/12/20 03:40:00;;;;;;;43.90;11.95;;;;;;;;;;5026451;28;20038;-61
2021/12/20 03:42:28;;;;;;;31.10;7.38;;;;;;;;;;5014739;28;20037;-60
2021/12/20 03:44:53;;;;;;;33.35;8.55;;;;;;;;;;5013472;28;20049;-60
2021/12/20 03:47:18;;;;;;;34.75;9.90;;;;;;;;;;5014795;28;20087;-60
2021/12/20 03:49:43;;;;;;;37.78;9.88;;;;;;;;;;5013092;28;20033;-60
2021/12/20 03:52:09;;;;;;;34.40;9.40;;;;;;;;;;5014581;28;20469;-60
2021/12/20 03:54:34;;;;;;;34.38;6.65;;;;;;;;;;5015211;28;20460;-60
2021/12/20 03:57:00;;;;;;;27.25;8.45;;;;;;;;;;5034123;28;20563;-61
2021/12/20 03:59:25;;;;;;;45.42;10.95;;;;;;;;;;5029984;28;20033;-61
2021/12/20 04:01:51;;;;;;;40.83;9.77;;;;;;;;;;5034596;28;20063;-60
2021/12/20 04:04:16;;;;;;;33.67;8.60;;;;;;;;;;5027427;28;20449;-60
2021/12/20 04:06:41;;;;;;;27.63;5.68;;;;;;;;;;5014291;28;20101;-60
2021/12/20 04:09:06;;;;;;;40.57;10.37;;;;;;;;;;5026747;28;20096;-60
2021/12/20 04:11:32;;;;;;;29.27;9.00;;;;;;;;;;5033482;28;20018;-60
2021/12/20 04:13:57;;;;;;;49.35;9.73;;;;;;;;;;5032572;28;20379;-60
2021/12/20 04:16:22;;;;;;;29.53;8.33;;;;;;;;;;5033972;28;20053;-60
2021/12/20 04:18:48;;;;;;;36.40;9.02;;;;;;;;;;5033668;28;20511;-60
2021/12/20 04:21:13;;;;;;;39.53;6.87;;;;;;;;;;5032499;28;20057;-60
2021/12/20 04:23:38;;;;;;;31.75;8.90;;;;;;;;;;5017858;28;20026;-60
2021/12/20 04:26:03;;;;;;;36.22;8.57;;;;;;;;;;5012254;28;20072;-60
2021/12/20 04:28:29;;;;;;;32.17;10.27;;;;;;;;;;5024903;28;20045;-60
2021/12/20 04:30:54;;;;;;;30.38;7.97;;;;;;;;;;5032375;28;20091;-58
2021/12/20 04:33:20;;;;;;;33.38;10.23;;;;;;;;;;5032952;28;20030;-59
2021/12/20 04:35:45;;;;;;;26.35;9.43;;;;;;;;;;5024503;28;20026;-58
2021/12/20 04:38:11;;;;;;;37.92;8.95;;;;;;;;;;5022605;28;20041;-58
2021/12/20 04:40:36;;;;;;;32.17;8.02;;;;;;;;;;5031743;28;20091;-60
2021/12/20 04:43:02;;;;;;;41.58;7.97;;;;;;;;;;5033759;28;20017;-59
2021/12/20 04:45:28;;;;;;;34.45;6.88;;;;;;;;;;5031877;28;20037;-60
2021/12/20 04:47:53;;;;;;;34.78;6.97;;;;;;;;;;5033227;28;20017;-60
2021/12/20 04:50:18;;;;;;;25.20;7.45;;;;;;;;;;5032070;28;20056;-60
2021/12/20 04:52:44;;;;;;;30.80;9.43;;;;;;;;;;5030808;28;20472;-60
2021/12/20 04:55:10;;;;;;;39.38;10.73;;;;;;;;;;5031756;28;20088;-60
2021/12/20 04:57:35;;;;;;;31.50;9.52;;;;;;;;;;5029034;28;20142;-60
2021/12/20 05:00:00;;;;;;;27.48;6.90;;;;;;;;;;5012279;28;20378;-60
2021/12/20 05:02:27;;;;;;;41.90;13.17;;;;;;;;;;5013094;28;20026;-60
2021/12/20 05:04:52;;;;;;;31.35;8.68;;;;;;;;;;5031840;28;20521;-60
2021/12/20 05:07:17;;;;;;;34.63;9.20;;;;;;;;;;5031382;28;20017;-59
2021/12/20 05:09:42;;;;;;;37.78;8.98;;;;;;;;;;5030858;28;20555;-59
2021/12/20 05:12:14;;;;;;;30.15;10.77;;;;;;;;;;5016387;28;20044;-59
2021/12/20 05:14:41;;;;;;;42.58;5.85;;;;;;;;;;5026858;28;20113;-58
2021/12/20 05:17:08;;;;;;;33.28;8.05;;;;;;;;;;5021767;28;20542;-58
2021/12/20 05:19:33;;;;;;;41.75;10.15;;;;;;;;;;5011369;28;20089;-58
2021/12/20 05:21:59;;;;;;;38.15;12.05;;;;;;;;;;5026476;28;20021;-58
2021/12/20 05:24:24;;;;;;;58.42;11.45;;;;;;;;;;5030229;28;20116;-58
2021/12/20 05:26:49;;;;;;;35.60;12.47;;;;;;;;;;5032799;28;20432;-58
2021/12/20 05:29:14;;;;;;;39.28;7.88;;;;;;;;;;5013749;28;20452;-58
2021/12/20 05:31:39;;;;;;;23.57;6.17;;;;;;;;;;5011943;28;20451;-58
2021/12/20 05:34:05;;;;;;;37.78;9.18;;;;;;;;;;5016091;28;20468;-58
2021/12/20 05:36:30;;;;;;;41.03;10.73;;;;;;;;;;5024346;28;20680;-59
2021/12/20 05:38:55;;;;;;;30.02;7.43;;;;;;;;;;5021998;28;20452;-58
2021/12/20 05:41:20;;;;;;;36.57;12.87;;;;;;;;;;5012755;28;20148;-57
2021/12/20 05:43:46;;;;;;;36.38;6.90;;;;;;;;;;5011395;28;20412;-57
2021/12/20 05:46:11;;;;;;;51.25;12.68;;;;;;;;;;5009915;28;20038;-57
2021/12/20 05:48:36;;;;;;;42.75;11.20;;;;;;;;;;5012341;28;20496;-57
2021/12/20 05:51:02;;;;;;;52.67;11.43;;;;;;;;;;5011131;28;20033;-57
2021/12/20 05:53:27;;;;;;;28.65;10.60;;;;;;;;;;5011901;28;20061;-57
2021/12/20 05:55:52;;;;;;;78.30;9.18;;;;;;;;;;5011092;28;20038;-57
2021/12/20 05:58:17;;;;;;;28.90;9.98;;;;;;;;;;5012094;28;20501;-57
2021/12/20 06:00:42;;;;;;;24.00;10.73;;;;;;;;;;5012886;28;20042;-55
2021/12/20 06:03:09;;;;;;;28.80;10.53;;;;;;;;;;5012278;28;20404;-56
2021/12/20 06:05:35;;;;;;;77.82;14.95;;;;;;;;;;5010607;28;20456;-56
2021/12/20 06:08:00;;;;;;;59.55;6.57;;;;;;;;;;5012086;28;20508;-56
2021/12/20 06:10:25;;;;;;;20.27;5.63;;;;;;;;;;5010588;28;20408;-56
2021/12/20 06:12:50;;;;;;;9.95;5.50;;;;;;;;;;5011225;28;20030;-56
2021/12/20 06:15:16;;;;;;;20.63;3.80;;;;;;;;;;5028915;28;20025;-56
2021/12/20 06:17:41;;;;;;;13.98;5.20;;;;;;;;;;5014390;28;20018;-56
2021/12/20 06:20:07;;;;;;;17.17;6.03;;;;;;;;;;5009945;28;20161;-56
2021/12/20 06:22:32;;;;;;;18.77;6.10;;;;;;;;;;5011112;28;20456;-56
2021/12/20 06:24:57;;;;;;;15.25;6.10;;;;;;;;;;5018507;28;20057;-56
2021/12/20 06:27:23;;;;;;;23.40;5.25;;;;;;;;;;5031421;28;20030;-56
2021/12/20 06:29:48;;;;;;;13.20;3.93;;;;;;;;;;5030394;28;20032;-56
2021/12/20 06:32:13;;;;;;;9.80;3.47;;;;;;;;;;5031273;28;20028;-56
2021/12/20 06:34:39;;;;;;;26.15;3.50;;;;;;;;;;5029823;28;20042;-56
2021/12/20 06:37:04;;;;;;;8.80;3.17;;;;;;;;;;5031423;28;20025;-56
2021/12/20 06:39:31;;;;;;;15.30;4.63;;;;;;;;;;5029685;28;20030;-56
2021/12/20 06:41:56;;;;;;;3.80;3.47;;;;;;;;;;5031682;28;20420;-56
2021/12/20 06:44:21;;;;;;;55.47;8.30;;;;;;;;;;5029756;28;20476;-57
2021/12/20 06:46:46;;;;;;;18.38;5.38;;;;;;;;;;5031395;28;20020;-56
2021/12/20 06:49:12;;;;;;;35.40;9.00;;;;;;;;;;5030249;28;20532;-56
2021/12/20 06:51:40;;;;;;;20.30;4.93;;;;;;;;;;5031293;28;20037;-56
2021/12/20 06:54:05;;;;;;;11.98;4.30;;;;;;;;;;5029850;28;20107;-56
2021/12/20 06:56:31;;;;;;;23.30;7.18;;;;;;;;;;5030661;28;20080;-56
2021/12/20 06:58:56;;;;;;;14.38;6.55;;;;;;;;;;5029981;28;20018;-55
2021/12/20 07:01:21;;;;;;;15.65;6.15;;;;;;;;;;5030489;28;20104;-56
2021/12/20 07:03:47;;;;;;;15.23;4.40;;;;;;;;;;5031236;28;20025;-56
2021/12/20 07:06:12;;;;;;;19.25;6.35;;;;;;;;;;5029822;28;20042;-56
2021/12/20 07:08:37;;;;;;;13.40;5.57;;;;;;;;;;5030584;28;20021;-56
2021/12/20 07:11:05;;;;;;;16.45;4.00;;;;;;;;;;5029589;28;20457;-56
2021/12/20 07:13:30;;;;;;;40.07;6.63;;;;;;;;;;5030851;28;20492;-56
2021/12/20 07:15:55;;;;;;;6.63;4.35;;;;;;;;;;5029250;28;20029;-56
2021/12/20 07:18:20;;;;;;;10.55;3.78;;;;;;;;;;5030742;28;20021;-56
2021/12/20 07:20:46;;;;;;;18.80;5.13;;;;;;;;;;5029527;28;20262;-55
2021/12/20 07:23:11;;;;;;;25.65;4.78;;;;;;;;;;5030832;28;20033;-56
2021/12/20 07:25:36;;;;;;;60.53;6.93;;;;;;;;;;5029103;28;20033;-56
2021/12/20 07:28:01;;;;;;;24.95;4.03;;;;;;;;;;5031091;28;20431;-56
2021/12/20 07:30:26;;;;;;;8.07;3.50;;;;;;;;;;5028286;28;20381;-56
2021/12/20 07:32:51;;;;;;;10.77;3.92;;;;;;;;;;5030783;28;20026;-56
2021/12/20 07:35:17;;;;;;;16.03;5.57;;;;;;;;;;5029263;28;20029;-56
2021/12/20 07:37:43;;;;;;;7.82;4.30;;;;;;;;;;5030331;28;20937;-56
2021/12/20 07:40:08;;;;;;;11.85;5.55;;;;;;;;;;5029394;28;20091;-56
2021/12/20 07:42:34;;;;;;;18.98;6.20;;;;;;;;;;5030467;28;20025;-56
2021/12/20 07:44:59;;;;;;;79.55;7.40;;;;;;;;;;5028956;28;20116;-56
2021/12/20 07:47:24;;;;;;;6.45;3.50;;;;;;;;;;5030487;28;20049;-56
2021/12/20 07:49:49;;;;;;;32.45;5.32;;;;;;;;;;5029343;28;20033;-56
2021/12/20 07:52:14;;;;;;;9.05;3.50;;;;;;;;;;5030584;28;20104;-56
2021/12/20 07:54:40;;;;;;;9.63;4.47;;;;;;;;;;5029035;28;20030;-56
2021/12/20 07:57:05;;;;;;;20.37;7.17;;;;;;;;;;5030419;28;20049;-56
2021/12/20 07:59:30;;;;;;;12.02;5.95;;;;;;;;;;5028522;28;20452;-56
2021/12/20 08:01:56;;;;;;;17.10;6.53;;;;;;;;;;5030609;28;20602;-56
2021/12/20 08:04:22;;;;;;;18.38;6.18;;;;;;;;;;5029066;28;20444;-56
2021/12/20 08:06:47;;;;;;;51.55;6.45;;;;;;;;;;5030220;28;20029;-56
2021/12/20 08:09:14;;;;;;;32.97;5.20;;;;;;;;;;5031435;28;20025;-56
2021/12/20 08:11:39;;;;;;;11.25;5.15;;;;;;;;;;5034265;28;20067;-56
2021/12/20 08:14:04;;;;;;;10.60;5.23;;;;;;;;;;5032280;28;20021;-56
2021/12/20 08:16:30;;;;;;;16.43;4.57;;;;;;;;;;5033724;28;20499;-56
2021/12/20 08:18:55;;;;;;;14.40;4.47;;;;;;;;;;5032810;28;20412;-54
2021/12/20 08:21:21;;;;;;;48.60;5.97;;;;;;;;;;5033811;28;20073;-56
2021/12/20 08:23:46;;;;;;;10.40;4.95;;;;;;;;;;5034292;28;20083;-56
2021/12/20 08:26:11;;;;;;;19.33;6.40;;;;;;;;;;5032348;28;20038;-56
2021/12/20 08:28:37;;;;;;;9.23;4.30;;;;;;;;;;5033376;28;20028;-56
2021/12/20 08:31:04;;;;;;;16.42;7.38;;;;;;;;;;5032483;28;20041;-56
2021/12/20 08:33:30;;;;;;;18.60;7.60;;;;;;;;;;5033512;28;20040;-56
2021/12/20 08:35:55;;;;;;;29.02;8.38;;;;;;;;;;5031982;28;20029;-57
2021/12/20 08:38:21;;;;;;;18.05;4.70;;;;;;;;;;5033848;28;20024;-56
2021/12/20 08:40:47;;;;;;;11.65;4.85;;;;;;;;;;5032277;28;20041;-56
2021/12/20 08:43:12;;;;;;;26.42;5.80;;;;;;;;;;5033403;28;20025;-56
2021/12/20 08:45:37;;;;;;;14.63;4.88;;;;;;;;;;5031618;28;20037;-56
2021/12/20 08:48:03;;;;;;;20.75;7.47;;;;;;;;;;5033708;28;20441;-56
2021/12/20 08:50:28;;;;;;;19.08;7.22;;;;;;;;;;5031977;28;20469;-56
2021/12/20 08:52:53;;;;;;;29.40;4.70;;;;;;;;;;5032864;28;20024;-56
2021/12/20 08:55:19;;;;;;;16.42;6.05;;;;;;;;;;5032164;28;20044;-56
2021/12/20 08:57:44;;;;;;;11.23;5.78;;;;;;;;;;5032857;28;20346;-56
2021/12/20 09:00:12;;;;;;;19.50;7.03;;;;;;;;;;5031817;28;20091;-56
2021/12/20 09:02:37;;;;;;;32.05;6.60;;;;;;;;;;5033345;28;20424;-56
2021/12/20 09:05:03;;;;;;;21.85;5.75;;;;;;;;;;5031760;28;20033;-56
2021/12/20 09:07:28;;;;;;;29.33;8.50;;;;;;;;;;5024108;28;20026;-56
2021/12/20 09:09:53;;;;;;;21.00;6.07;;;;;;;;;;5022628;28;20049;-56
2021/12/20 09:12:19;;;;;;;15.00;5.30;;;;;;;;;;5032963;28;20017;-56
2021/12/20 09:14:45;;;;;;;23.55;7.10;;;;;;;;;;5012835;28;20037;-56
2021/12/20 09:17:10;;;;;;;34.38;11.23;;;;;;;;;;5013244;28;20072;-56
2021/12/20 09:19:36;;;;;;;45.07;10.90;;;;;;;;;;5010472;28;20389;-56
2021/12/20 09:22:02;;;;;;;34.88;12.82;;;;;;;;;;5012733;28;20428;-56
2021/12/20 09:24:27;;;;;;;46.92;14.70;;;;;;;;;;5016280;28;20040;-56
2021/12/20 09:26:53;;;;;;;52.50;12.77;;;;;;;;;;5031835;28;20376;-56
2021/12/20 09:29:18;;;;;;;39.73;14.00;;;;;;;;;;5031009;28;20531;-56
2021/12/20 09:31:44;;;;;;;28.47;8.83;;;;;;;;;;5032446;28;20368;-56
2021/12/20 09:34:10;;;;;;;44.63;12.13;;;;;;;;;;5031245;28;20464;-56
2021/12/20 09:36:35;;;;;;;26.42;8.38;;;;;;;;;;5028458;28;20044;-57
2021/12/20 09:39:01;;;;;;;33.97;8.90;;;;;;;;;;5029636;28;20037;-56
2021/12/20 09:44:01;;;;;;;39.25;12.73;;;;;;;;;;5029780;28;20037;-56
2021/12/20 09:46:27;;;;;;;29.42;10.27;;;;;;;;;;5031589;28;20097;-56
2021/12/20 09:48:53;;;;;;;29.48;9.50;;;;;;;;;;5031569;28;20120;-57
2021/12/20 09:51:19;;;;;;;31.10;9.77;;;;;;;;;;5030636;28;20084;-56
2021/12/20 09:53:44;;;;;;;32.95;11.27;;;;;;;;;;5031969;28;20468;-56
2021/12/20 09:56:10;;;;;;;30.17;9.13;;;;;;;;;;5048720;28;20033;-56
2021/12/20 09:58:37;;;;;;;26.92;10.55;;;;;;;;;;5051468;28;20819;-57
2021/12/20 10:01:03;;;;;;;25.67;7.47;;;;;;;;;;5050432;28;20047;-56
2021/12/20 10:03:28;;;;;;;34.35;11.07;;;;;;;;;;5051690;28;20021;-56
2021/12/20 10:05:55;;;;;;;29.40;11.30;;;;;;;;;;5050094;28;20095;-56
2021/12/20 10:08:30;;;;;;;37.30;10.52;;;;;;;;;;5051800;28;20028;-56
2021/12/20 10:10:55;;;;;;;30.13;9.90;;;;;;;;;;5050466;28;20033;-57
2021/12/20 10:13:31;;;;;;;33.95;9.40;;;;;;;;;;5051480;28;20092;-56
2021/12/20 10:15:57;;;;;;;23.85;8.85;;;;;;;;;;5050310;28;20029;-56
2021/12/20 10:18:23;;;;;;;38.20;8.77;;;;;;;;;;5046216;28;20024;-57
2021/12/20 10:20:50;;;;;;;28.08;7.75;;;;;;;;;;5037514;28;20109;-57
2021/12/20 10:23:15;;;;;;;27.27;9.25;;;;;;;;;;5050798;28;20017;-56
2021/12/20 10:25:42;;;;;;;33.17;9.70;;;;;;;;;;5033813;28;20076;-57
2021/12/20 10:28:15;;;;;;;28.45;10.13;;;;;;;;;;5031466;28;20083;-57
2021/12/20 10:30:42;;;;;;;21.65;6.60;;;;;;;;;;5029466;28;20801;-57
2021/12/20 10:33:08;;;;;;;42.95;12.00;;;;;;;;;;5031473;28;20683;-56
2021/12/20 10:35:35;;;;;;;37.97;10.50;;;;;;;;;;5029540;28;20039;-56
2021/12/20 10:38:03;;;;;;;29.67;11.55;;;;;;;;;;5031445;28;20112;-57
2021/12/20 10:40:28;;;;;;;35.92;9.02;;;;;;;;;;5020611;28;20180;-56
2021/12/20 10:42:55;;;;;;;35.08;9.35;;;;;;;;;;5011620;28;20105;-57
2021/12/20 10:45:22;;;;;;;31.15;8.82;;;;;;;;;;5021529;28;20042;-57
2021/12/20 10:47:48;;;;;;;30.13;8.82;;;;;;;;;;5031255;28;20140;-57
2021/12/20 10:50:19;;;;;;;31.73;9.30;;;;;;;;;;5029618;28;20084;-57
2021/12/20 10:52:44;;;;;;;29.70;7.93;;;;;;;;;;5030639;28;20541;-56
2021/12/20 10:55:11;;;;;;;26.23;9.93;;;;;;;;;;5029841;28;20061;-57
2021/12/20 10:57:36;;;;;;;33.08;10.18;;;;;;;;;;5030685;28;20422;-56
2021/12/20 11:00:21;;;;;;;30.20;9.90;;;;;;;;;;5029976;28;20033;-57
2021/12/20 11:03:24;;;;;;;33.90;9.07;;;;;;;;;;5031529;28;20122;-57
2021/12/20 11:06:13;;;;;;;36.15;10.15;;;;;;;;;;5047838;28;20045;-57
2021/12/20 11:11:22;;;;;;;32.90;10.55;;;;;;;;;;5049148;28;20098;-57
2021/12/20 11:13:48;;;;;;;26.75;8.35;;;;;;;;;;5050899;28;20041;-57
2021/12/20 11:16:22;;;;;;;31.45;10.85;;;;;;;;;;5041522;28;20033;-57
2021/12/20 11:19:07;;;;;;;30.05;9.60;;;;;;;;;;5035364;28;20473;-56
2021/12/20 11:21:36;;;;;;;33.60;10.90;;;;;;;;;;5031853;28;20036;-57
2021/12/20 11:24:03;;;;;;;27.85;7.50;;;;;;;;;;5045355;28;20029;-56
2021/12/20 11:26:28;;;;;;;32.88;11.57;;;;;;;;;;5050031;28;20408;-56
2021/12/20 11:28:54;;;;;;;29.30;13.20;;;;;;;;;;5034575;28;20033;-56
2021/12/20 11:31:19;;;;;;;32.00;9.45;;;;;;;;;;5029532;28;20118;-56
2021/12/20 11:33:45;;;;;;;43.05;10.93;;;;;;;;;;5044401;28;20516;-57
2021/12/20 11:36:10;;;;;;;28.70;9.45;;;;;;;;;;5049217;28;20037;-57
2021/12/20 11:38:35;;;;;;;38.07;10.93;;;;;;;;;;5050690;28;20021;-57
2021/12/20 11:41:00;;;;;;;36.25;9.80;;;;;;;;;;5040716;28;20859;-56
2021/12/20 11:43:26;;;;;;;21.02;8.25;;;;;;;;;;5032043;28;20381;-57
2021/12/20 11:45:51;;;;;;;30.05;10.70;;;;;;;;;;5033062;28;20124;-57
2021/12/20 11:48:18;;;;;;;27.70;8.82;;;;;;;;;;5034511;28;20047;-57
2021/12/20 11:50:43;;;;;;;27.95;7.05;;;;;;;;;;5032844;28;20038;-57
2021/12/20 11:53:10;;;;;;;33.13;13.38;;;;;;;;;;5034641;28;20091;-57
2021/12/20 11:55:35;;;;;;;31.75;10.70;;;;;;;;;;5032971;28;20472;-57
2021/12/20 11:58:02;;;;;;;26.67;9.82;;;;;;;;;;5033946;28;20064;-57
2021/12/20 12:00:27;;;;;;;29.13;7.35;;;;;;;;;;5032891;28;20697;-57
2021/12/20 12:03:00;;;;;;;29.83;10.52;;;;;;;;;;5034346;28;20061;-56
2021/12/20 12:05:39;;;;;;;38.50;12.45;;;;;;;;;;5032356;28;20037;-56
2021/12/20 12:08:24;;;;;;;27.90;9.30;;;;;;;;;;5034666;28;20025;-56
2021/12/20 12:10:50;;;;;;;37.35;11.68;;;;;;;;;;5039963;28;20041;-56
2021/12/20 12:13:17;;;;;;;28.63;8.18;;;;;;;;;;5054303;28;20040;-57
2021/12/20 12:15:52;;;;;;;35.58;9.98;;;;;;;;;;5052433;28;20484;-57
2021/12/20 12:18:17;;;;;;;27.38;10.75;;;;;;;;;;5054124;28;20021;-57
2021/12/20 12:20:47;;;;;;;32.45;12.32;;;;;;;;;;5049037;28;20528;-56
2021/12/20 12:23:12;;;;;;;32.95;11.07;;;;;;;;;;5052664;28;20429;-57
2021/12/20 12:25:43;;;;;;;26.13;9.13;;;;;;;;;;5037923;28;20129;-57
2021/12/20 12:28:09;;;;;;;24.27;7.07;;;;;;;;;;5034283;28;20021;-56
2021/12/20 12:30:35;;;;;;;23.70;7.07;;;;;;;;;;5032393;28;20489;-56
2021/12/20 12:33:02;;;;;;;39.72;9.13;;;;;;;;;;5033612;28;20044;-56
2021/12/20 12:35:37;;;;;;;36.00;11.03;;;;;;;;;;5032183;28;20030;-57
2021/12/20 12:38:17;;;;;;;24.73;9.05;;;;;;;;;;5034048;28;20474;-57
2021/12/20 12:41:02;;;;;;;24.35;9.15;;;;;;;;;;5031604;28;20040;-57
2021/12/20 12:43:46;;;;;;;26.73;7.45;;;;;;;;;;5019007;28;20044;-57
2021/12/20 12:46:11;;;;;;;29.08;8.05;;;;;;;;;;5022097;28;20073;-56
2021/12/20 12:48:41;;;;;;;24.33;10.50;;;;;;;;;;5032881;28;20049;-56
2021/12/20 12:51:18;;;;;;;18.55;5.97;;;;;;;;;;5031388;28;20074;-56
2021/12/20 12:53:43;;;;;;;18.27;5.50;;;;;;;;;;5031405;28;20031;-57
2021/12/20 12:56:24;;;;;;;24.83;8.40;;;;;;;;;;5031338;28;20132;-57
2021/12/20 12:59:08;;;;;;;21.92;7.38;;;;;;;;;;5022682;28;20200;-56
2021/12/20 13:01:33;;;;;;;10.50;4.90;;;;;;;;;;5012031;28;20038;-56
2021/12/20 13:03:58;;;;;;;12.52;5.60;;;;;;;;;;5012104;28;20060;-56
2021/12/20 13:06:25;;;;;;;16.73;5.30;;;;;;;;;;5032958;28;20021;-57
2021/12/20 13:08:51;;;;;;;12.05;7.15;;;;;;;;;;5033130;28;20096;-57
2021/12/20 13:11:21;;;;;;;14.82;4.68;;;;;;;;;;5031392;28;20488;-57
2021/12/20 13:13:53;;;;;;;14.57;5.40;;;;;;;;;;5033303;28;20025;-56
2021/12/20 13:16:24;;;;;;;15.30;6.57;;;;;;;;;;5031687;28;20033;-57
2021/12/20 13:18:51;;;;;;;11.75;4.28;;;;;;;;;;5033031;28;20116;-57
2021/12/20 13:21:20;;;;;;;18.75;6.57;;;;;;;;;;5031535;28;20403;-57
2021/12/20 13:23:48;;;;;;;21.48;5.00;;;;;;;;;;5032892;28;20018;-56
2021/12/20 13:26:17;;;;;;;14.57;5.65;;;;;;;;;;5050193;28;20064;-56
2021/12/20 13:28:44;;;;;;;13.68;5.75;;;;;;;;;;5052469;28;20024;-56
2021/12/20 13:31:13;;;;;;;10.15;5.20;;;;;;;;;;5051274;28;20044;-56
2021/12/20 13:33:40;;;;;;;13.93;5.35;;;;;;;;;;5052178;28;20021;-57
2021/12/20 13:36:11;;;;;;;17.35;5.40;;;;;;;;;;5051125;28;20526;-56
2021/12/20 13:38:43;;;;;;;13.57;4.55;;;;;;;;;;5052371;28;20025;-57
2021/12/20 13:41:09;;;;;;;17.02;5.63;;;;;;;;;;5050628;28;20116;-56
2021/12/20 13:43:37;;;;;;;9.55;4.45;;;;;;;;;;5052412;28;20024;-56
2021/12/20 13:46:10;;;;;;;15.20;4.40;;;;;;;;;;5050732;28;20036;-56
2021/12/20 13:48:36;;;;;;;15.10;6.65;;;;;;;;;;5052084;28;20023;-56
2021/12/20 13:51:01;;;;;;;11.55;3.80;;;;;;;;;;5050203;28;20513;-56
2021/12/20 13:53:27;;;;;;;12.23;5.70;;;;;;;;;;5052051;28;20028;-56
2021/12/20 13:55:56;;;;;;;8.20;4.65;;;;;;;;;;5050537;28;20033;-56
2021/12/20 13:58:21;;;;;;;15.73;6.57;;;;;;;;;;5051996;28;20102;-57
2021/12/20 14:00:47;;;;;;;14.70;5.72;;;;;;;;;;5050572;28;20033;-57
2021/12/20 14:03:12;;;;;;;9.90;4.20;;;;;;;;;;5045847;28;20032;-56
2021/12/20 14:05:39;;;;;;;15.47;4.57;;;;;;;;;;5048072;28;20040;-56
2021/12/20 14:08:13;;;;;;;8.60;4.90;;;;;;;;;;5051945;28;20448;-57
2021/12/20 14:10:39;;;;;;;15.65;4.88;;;;;;;;;;5049474;28;20081;-57
2021/12/20 14:13:08;;;;;;;18.10;5.78;;;;;;;;;;5051862;28;20096;-57
2021/12/20 14:15:38;;;;;;;8.93;4.65;;;;;;;;;;5049437;28;20487;-57
2021/12/20 14:18:25;;;;;;;15.73;7.28;;;;;;;;;;5051313;28;20066;-57
2021/12/20 14:20:56;;;;;;;17.37;6.50;;;;;;;;;;5050242;28;20089;-57
2021/12/20 14:23:26;;;;;;;11.27;3.80;;;;;;;;;;5051557;28;20873;-57
2021/12/20 14:26:02;;;;;;;16.35;5.50;;;;;;;;;;5049458;28;20048;-58
2021/12/20 14:28:28;;;;;;;13.85;4.40;;;;;;;;;;5051410;28;20107;-57
2021/12/20 14:30:57;;;;;;;10.98;5.07;;;;;;;;;;5050132;28;20044;-58
2021/12/20 14:33:26;;;;;;;14.90;5.55;;;;;;;;;;5050587;28;20484;-57
2021/12/20 14:35:52;;;;;;;14.50;6.03;;;;;;;;;;5049969;28;20489;-57
2021/12/20 14:38:26;;;;;;;9.10;4.80;;;;;;;;;;5051589;28;20009;-57
2021/12/20 14:40:52;;;;;;;14.98;6.72;;;;;;;;;;5049595;28;20059;-57
2021/12/20 14:43:18;;;;;;;19.03;8.10;;;;;;;;;;5051744;28;20016;-58